createdAt,value
2022-12-28T00:07:37.245Z,0.01
2022-12-28T00:17:37.314Z,0
2022-12-28T00:27:37.284Z,-0.04
2022-12-28T00:37:37.319Z,-0.01
2022-12-28T00:47:37.295Z,-0.01
2022-12-28T00:57:37.346Z,-0.02
2022-12-28T01:07:37.295Z,-0.02
2022-12-28T01:17:37.433Z,-0.06
2022-12-28T01:27:37.306Z,-0.1
2022-12-28T01:37:37.379Z,-0.1
2022-12-28T01:47:37.332Z,-0.07
2022-12-28T01:57:37.351Z,-0.07
2022-12-28T02:07:37.367Z,-0.07
2022-12-28T02:17:37.654Z,-0.06
2022-12-28T02:27:37.362Z,-0.02
2022-12-28T02:37:37.395Z,0.03
2022-12-28T02:47:37.372Z,0
2022-12-28T02:57:37.397Z,-0.02
2022-12-28T03:07:37.423Z,-0.1
2022-12-28T03:17:37.458Z,-0.12
2022-12-28T03:27:37.421Z,-0.06
2022-12-28T03:37:37.450Z,-0.06
2022-12-28T03:47:37.408Z,-0.08
2022-12-28T03:57:37.400Z,-0.04
2022-12-28T04:07:37.413Z,-0.03
2022-12-28T04:17:37.438Z,0.01
2022-12-28T04:27:37.439Z,-0.02
2022-12-28T04:37:37.469Z,-0.03
2022-12-28T04:47:37.434Z,-0.02
2022-12-28T04:57:37.462Z,0
2022-12-28T05:07:37.436Z,0
2022-12-28T05:17:37.472Z,-0.04
2022-12-28T05:27:37.449Z,-0.01
2022-12-28T05:37:37.848Z,0.03
2022-12-28T05:47:37.460Z,0.05
2022-12-28T05:57:37.479Z,0.02
2022-12-28T06:07:37.475Z,0
2022-12-28T06:17:37.515Z,-0.05
2022-12-28T06:27:37.479Z,0.03
2022-12-28T06:37:37.516Z,-0.01
2022-12-28T06:47:37.510Z,-0.04
2022-12-28T06:57:37.570Z,-0.05
2022-12-28T07:07:37.520Z,-0.12
2022-12-28T07:17:37.570Z,-0.03
2022-12-28T07:27:37.575Z,0
2022-12-28T07:37:37.542Z,0.01
2022-12-28T07:47:37.526Z,0.09
2022-12-28T07:57:37.557Z,0.26
2022-12-28T08:07:37.551Z,0.27
2022-12-28T08:17:37.578Z,0.37
2022-12-28T08:27:38.670Z,0.39
2022-12-28T08:37:37.598Z,0.51
2022-12-28T08:47:37.549Z,0.64
2022-12-28T08:57:37.580Z,1
2022-12-28T09:07:37.607Z,1.58
2022-12-28T09:17:37.634Z,2.24
2022-12-28T09:27:37.569Z,2.45
2022-12-28T09:37:37.575Z,2.86
2022-12-28T09:47:37.580Z,3.24
2022-12-28T09:57:37.602Z,4.7
2022-12-28T10:07:37.596Z,5.17
2022-12-28T10:17:37.597Z,5.5
2022-12-28T10:27:37.573Z,5.61
2022-12-28T10:37:37.618Z,5.96
2022-12-28T10:47:37.590Z,5.68
2022-12-28T10:57:37.972Z,5.98
2022-12-28T11:07:37.579Z,4.93
2022-12-28T11:17:37.669Z,4.36
2022-12-28T11:27:37.613Z,4.04
2022-12-28T11:37:37.631Z,3.83
2022-12-28T11:47:37.597Z,3.9
2022-12-28T11:57:37.623Z,4.25
2022-12-28T12:07:37.593Z,4.35
2022-12-28T12:17:42.740Z,4.38
2022-12-28T12:27:37.610Z,4.36
2022-12-28T12:37:37.671Z,4.42
2022-12-28T12:47:37.592Z,4.46
2022-12-28T12:57:37.628Z,4.49
2022-12-28T13:07:37.615Z,4.56
2022-12-28T13:17:37.753Z,4.41
2022-12-28T13:27:37.613Z,4.11
2022-12-28T13:37:37.642Z,3.92
2022-12-28T13:47:37.617Z,3.74
2022-12-28T13:57:47.065Z,3.62
2022-12-28T14:07:37.624Z,3.49
2022-12-28T14:17:38.046Z,3.29
2022-12-28T14:27:37.675Z,2.96
2022-12-28T14:37:37.654Z,2.53
2022-12-28T14:47:37.647Z,2.11
2022-12-28T14:57:37.675Z,1.87
2022-12-28T15:07:37.646Z,1.69
2022-12-28T15:17:37.751Z,1.55
2022-12-28T15:27:37.669Z,1.4
2022-12-28T15:37:37.694Z,1.22
2022-12-28T15:47:37.680Z,1
2022-12-28T15:57:37.694Z,0.84
2022-12-28T16:07:37.699Z,0.7
2022-12-28T16:17:44.254Z,0.6
2022-12-28T16:27:37.681Z,0.57
2022-12-28T16:37:37.691Z,0.56
2022-12-28T16:47:42.715Z,0.54
2022-12-28T16:57:37.766Z,0.5
2022-12-28T17:07:37.700Z,0.46
2022-12-28T17:17:37.727Z,0.41
2022-12-28T17:27:37.738Z,0.4
2022-12-28T17:37:37.987Z,0.38
2022-12-28T17:47:37.722Z,0.36
2022-12-28T17:57:38.854Z,0.33
2022-12-28T18:07:37.751Z,0.24
2022-12-28T18:17:37.784Z,0.2
2022-12-28T18:27:37.734Z,0.09
2022-12-28T18:37:37.788Z,0.08
2022-12-28T18:47:37.748Z,0.03
2022-12-28T18:57:37.920Z,0.01
2022-12-28T19:07:37.778Z,-0.02
2022-12-28T19:17:37.793Z,-0.08
2022-12-28T19:27:37.779Z,-0.11
2022-12-28T19:37:37.816Z,-0.13
2022-12-28T19:47:37.796Z,-0.1
2022-12-28T19:57:37.818Z,-0.16
2022-12-28T20:07:37.841Z,-0.24
2022-12-28T20:17:37.834Z,-0.29
2022-12-28T20:27:37.799Z,-0.27
2022-12-28T20:47:37.865Z,-0.36
2022-12-28T20:57:37.842Z,-0.39
2022-12-28T21:07:37.880Z,-0.45
2022-12-28T21:17:37.841Z,-0.47
2022-12-28T21:27:37.861Z,-0.45
2022-12-28T21:37:37.862Z,-0.51
2022-12-28T21:47:37.954Z,-0.57
2022-12-28T21:57:37.899Z,-0.68
2022-12-28T22:07:37.886Z,-0.69
2022-12-28T22:17:37.873Z,-0.69
2022-12-28T22:27:37.908Z,-0.72
2022-12-28T22:37:37.934Z,-0.75
2022-12-28T22:47:37.926Z,-0.91
2022-12-28T22:57:37.912Z,-1.02
2022-12-28T23:07:37.930Z,-1.11
2022-12-28T23:17:37.922Z,-1.16
2022-12-28T23:27:37.978Z,-1.3
2022-12-28T23:37:37.948Z,-1.44
2022-12-28T23:47:37.976Z,-1.52
2022-12-28T23:57:37.968Z,-1.6
